sensor_id;sensor_type;location;lat;lon;timestamp;temperature;humidity
48019;DHT22;33786;48.690;9.562;2023-09-07T00:01:52;12.80;99.90
48019;DHT22;33786;48.690;9.562;2023-09-07T00:04:19;12.80;99.90
48019;DHT22;33786;48.690;9.562;2023-09-07T00:06:48;12.80;99.90
48019;DHT22;33786;48.690;9.562;2023-09-07T00:09:16;12.80;99.90
48019;DHT22;33786;48.690;9.562;2023-09-07T00:11:44;12.70;99.90
48019;DHT22;33786;48.690;9.562;2023-09-07T00:14:11;12.70;99.90
48019;DHT22;33786;48.690;9.562;2023-09-07T00:16:38;12.70;99.90
48019;DHT22;33786;48.690;9.562;2023-09-07T00:19:05;12.60;99.90
48019;DHT22;33786;48.690;9.562;2023-09-07T00:21:32;12.70;99.90
48019;DHT22;33786;48.690;9.562;2023-09-07T00:23:59;12.70;99.90
48019;DHT22;33786;48.690;9.562;2023-09-07T00:26:25;12.60;99.90
48019;DHT22;33786;48.690;9.562;2023-09-07T00:28:52;12.60;99.90
48019;DHT22;33786;48.690;9.562;2023-09-07T00:31:19;12.60;99.90
48019;DHT22;33786;48.690;9.562;2023-09-07T00:33:46;12.60;99.90
48019;DHT22;33786;48.690;9.562;2023-09-07T00:36:12;12.60;99.90
48019;DHT22;33786;48.690;9.562;2023-09-07T00:38:39;12.60;99.90
48019;DHT22;33786;48.690;9.562;2023-09-07T00:41:06;12.60;99.90
48019;DHT22;33786;48.690;9.562;2023-09-07T00:43:33;12.60;99.90
48019;DHT22;33786;48.690;9.562;2023-09-07T00:46:00;12.50;99.90
48019;DHT22;33786;48.690;9.562;2023-09-07T00:48:27;12.50;99.90
48019;DHT22;33786;48.690;9.562;2023-09-07T00:50:54;12.50;99.90
48019;DHT22;33786;48.690;9.562;2023-09-07T00:53:21;12.50;99.90
48019;DHT22;33786;48.690;9.562;2023-09-07T00:55:49;12.40;99.90
48019;DHT22;33786;48.690;9.562;2023-09-07T00:58:15;12.40;99.90
48019;DHT22;33786;48.690;9.562;2023-09-07T01:00:42;12.40;99.90
48019;DHT22;33786;48.690;9.562;2023-09-07T01:03:09;12.40;99.90
48019;DHT22;33786;48.690;9.562;2023-09-07T01:08:19;12.40;99.90
48019;DHT22;33786;48.690;9.562;2023-09-07T01:10:50;12.30;99.90
48019;DHT22;33786;48.690;9.562;2023-09-07T01:13:18;12.20;99.90
48019;DHT22;33786;48.690;9.562;2023-09-07T01:15:44;12.20;99.90
48019;DHT22;33786;48.690;9.562;2023-09-07T01:18:11;12.20;99.90
48019;DHT22;33786;48.690;9.562;2023-09-07T01:20:50;12.20;99.90
48019;DHT22;33786;48.690;9.562;2023-09-07T01:23:19;12.20;99.90
48019;DHT22;33786;48.690;9.562;2023-09-07T01:25:46;12.20;99.90
48019;DHT22;33786;48.690;9.562;2023-09-07T01:28:14;12.20;99.90
48019;DHT22;33786;48.690;9.562;2023-09-07T01:30:41;12.20;99.90
48019;DHT22;33786;48.690;9.562;2023-09-07T01:33:08;12.10;99.90
48019;DHT22;33786;48.690;9.562;2023-09-07T01:35:35;12.10;99.90
48019;DHT22;33786;48.690;9.562;2023-09-07T01:38:03;12.10;99.90
48019;DHT22;33786;48.690;9.562;2023-09-07T01:40:30;12.10;99.90
48019;DHT22;33786;48.690;9.562;2023-09-07T01:42:56;12.10;99.90
48019;DHT22;33786;48.690;9.562;2023-09-07T01:45:23;12.00;99.90
48019;DHT22;33786;48.690;9.562;2023-09-07T01:47:50;12.00;99.90
48019;DHT22;33786;48.690;9.562;2023-09-07T01:50:18;12.00;99.90
48019;DHT22;33786;48.690;9.562;2023-09-07T01:52:48;12.00;99.90
48019;DHT22;33786;48.690;9.562;2023-09-07T01:55:15;11.90;99.90
48019;DHT22;33786;48.690;9.562;2023-09-07T01:57:43;11.90;99.90
48019;DHT22;33786;48.690;9.562;2023-09-07T02:00:11;11.90;99.90
48019;DHT22;33786;48.690;9.562;2023-09-07T02:02:38;11.90;99.90
48019;DHT22;33786;48.690;9.562;2023-09-07T02:05:04;11.80;99.90
48019;DHT22;33786;48.690;9.562;2023-09-07T02:07:32;11.80;99.90
48019;DHT22;33786;48.690;9.562;2023-09-07T02:09:58;11.70;99.90
48019;DHT22;33786;48.690;9.562;2023-09-07T02:12:25;11.70;99.90
48019;DHT22;33786;48.690;9.562;2023-09-07T02:14:52;11.70;99.90
48019;DHT22;33786;48.690;9.562;2023-09-07T02:17:19;11.60;99.90
48019;DHT22;33786;48.690;9.562;2023-09-07T02:19:47;11.60;99.90
48019;DHT22;33786;48.690;9.562;2023-09-07T02:22:14;11.60;99.90
48019;DHT22;33786;48.690;9.562;2023-09-07T02:24:41;11.60;99.90
48019;DHT22;33786;48.690;9.562;2023-09-07T02:27:10;11.50;99.90
48019;DHT22;33786;48.690;9.562;2023-09-07T02:29:36;11.50;99.90
48019;DHT22;33786;48.690;9.562;2023-09-07T02:32:03;11.50;99.90
48019;DHT22;33786;48.690;9.562;2023-09-07T02:34:30;11.50;99.90
48019;DHT22;33786;48.690;9.562;2023-09-07T02:36:58;11.50;99.90
48019;DHT22;33786;48.690;9.562;2023-09-07T02:39:24;11.50;99.90
48019;DHT22;33786;48.690;9.562;2023-09-07T02:41:52;11.50;99.90
48019;DHT22;33786;48.690;9.562;2023-09-07T02:44:19;11.50;99.90
48019;DHT22;33786;48.690;9.562;2023-09-07T02:46:46;11.40;99.90
48019;DHT22;33786;48.690;9.562;2023-09-07T02:49:13;11.40;99.90
48019;DHT22;33786;48.690;9.562;2023-09-07T02:51:40;11.30;99.90
48019;DHT22;33786;48.690;9.562;2023-09-07T02:54:07;11.40;99.90
48019;DHT22;33786;48.690;9.562;2023-09-07T02:56:33;11.40;99.90
48019;DHT22;33786;48.690;9.562;2023-09-07T02:59:00;11.40;99.90
48019;DHT22;33786;48.690;9.562;2023-09-07T03:01:27;11.30;99.90
48019;DHT22;33786;48.690;9.562;2023-09-07T03:03:54;11.30;99.90
48019;DHT22;33786;48.690;9.562;2023-09-07T03:06:21;11.30;99.90
48019;DHT22;33786;48.690;9.562;2023-09-07T03:08:48;11.30;99.90
48019;DHT22;33786;48.690;9.562;2023-09-07T03:11:14;11.20;99.90
48019;DHT22;33786;48.690;9.562;2023-09-07T03:13:41;11.20;99.90
48019;DHT22;33786;48.690;9.562;2023-09-07T03:16:09;11.20;99.90
48019;DHT22;33786;48.690;9.562;2023-09-07T03:18:36;11.20;99.90
48019;DHT22;33786;48.690;9.562;2023-09-07T03:21:03;11.20;99.90
48019;DHT22;33786;48.690;9.562;2023-09-07T03:23:31;11.20;99.90
48019;DHT22;33786;48.690;9.562;2023-09-07T03:25:59;11.10;99.90
48019;DHT22;33786;48.690;9.562;2023-09-07T03:28:25;11.10;99.90
48019;DHT22;33786;48.690;9.562;2023-09-07T03:30:55;11.10;99.90
48019;DHT22;33786;48.690;9.562;2023-09-07T03:33:22;11.00;99.90
48019;DHT22;33786;48.690;9.562;2023-09-07T03:35:49;11.00;99.90
48019;DHT22;33786;48.690;9.562;2023-09-07T03:38:18;11.00;99.90
48019;DHT22;33786;48.690;9.562;2023-09-07T03:40:45;11.00;99.90
48019;DHT22;33786;48.690;9.562;2023-09-07T03:43:11;11.00;99.90
48019;DHT22;33786;48.690;9.562;2023-09-07T03:45:38;11.00;99.90
48019;DHT22;33786;48.690;9.562;2023-09-07T03:48:05;10.90;99.90
48019;DHT22;33786;48.690;9.562;2023-09-07T03:50:32;10.90;99.90
48019;DHT22;33786;48.690;9.562;2023-09-07T03:52:59;10.90;99.90
48019;DHT22;33786;48.690;9.562;2023-09-07T03:55:26;10.80;99.90
48019;DHT22;33786;48.690;9.562;2023-09-07T03:57:52;10.90;99.90
48019;DHT22;33786;48.690;9.562;2023-09-07T04:00:19;10.90;99.90
48019;DHT22;33786;48.690;9.562;2023-09-07T04:02:46;10.80;99.90
48019;DHT22;33786;48.690;9.562;2023-09-07T04:05:13;10.80;99.90
48019;DHT22;33786;48.690;9.562;2023-09-07T04:07:40;10.80;99.90
48019;DHT22;33786;48.690;9.562;2023-09-07T04:10:07;10.80;99.90
48019;DHT22;33786;48.690;9.562;2023-09-07T04:12:34;10.80;99.90
48019;DHT22;33786;48.690;9.562;2023-09-07T04:15:04;10.70;99.90
48019;DHT22;33786;48.690;9.562;2023-09-07T04:17:31;10.70;99.90
48019;DHT22;33786;48.690;9.562;2023-09-07T04:20:07;10.70;99.90
48019;DHT22;33786;48.690;9.562;2023-09-07T04:22:34;10.60;99.90
48019;DHT22;33786;48.690;9.562;2023-09-07T04:25:02;10.70;99.90
48019;DHT22;33786;48.690;9.562;2023-09-07T04:27:30;10.60;99.90
48019;DHT22;33786;48.690;9.562;2023-09-07T04:29:56;10.70;99.90
48019;DHT22;33786;48.690;9.562;2023-09-07T04:32:23;10.60;99.90
48019;DHT22;33786;48.690;9.562;2023-09-07T04:34:57;10.60;99.90
48019;DHT22;33786;48.690;9.562;2023-09-07T04:37:25;10.60;99.90
48019;DHT22;33786;48.690;9.562;2023-09-07T04:39:52;10.50;99.90
48019;DHT22;33786;48.690;9.562;2023-09-07T04:42:20;10.60;99.90
48019;DHT22;33786;48.690;9.562;2023-09-07T04:44:47;10.60;99.90
48019;DHT22;33786;48.690;9.562;2023-09-07T04:47:14;10.50;99.90
48019;DHT22;33786;48.690;9.562;2023-09-07T04:49:42;10.60;99.90
48019;DHT22;33786;48.690;9.562;2023-09-07T04:52:09;10.60;99.90
48019;DHT22;33786;48.690;9.562;2023-09-07T04:54:35;10.60;99.90
48019;DHT22;33786;48.690;9.562;2023-09-07T04:57:02;10.60;99.90
48019;DHT22;33786;48.690;9.562;2023-09-07T04:59:29;10.70;99.90
48019;DHT22;33786;48.690;9.562;2023-09-07T05:01:58;10.80;99.90
48019;DHT22;33786;48.690;9.562;2023-09-07T05:04:25;10.80;99.90
48019;DHT22;33786;48.690;9.562;2023-09-07T05:06:52;10.90;99.90
48019;DHT22;33786;48.690;9.562;2023-09-07T05:09:19;11.00;99.90
48019;DHT22;33786;48.690;9.562;2023-09-07T05:11:46;11.00;99.90
48019;DHT22;33786;48.690;9.562;2023-09-07T05:14:13;11.10;99.90
48019;DHT22;33786;48.690;9.562;2023-09-07T05:16:43;11.20;99.90
48019;DHT22;33786;48.690;9.562;2023-09-07T05:19:10;11.30;99.90
48019;DHT22;33786;48.690;9.562;2023-09-07T05:21:37;11.30;99.90
48019;DHT22;33786;48.690;9.562;2023-09-07T05:24:04;11.40;99.90
48019;DHT22;33786;48.690;9.562;2023-09-07T05:26:31;11.50;99.90
48019;DHT22;33786;48.690;9.562;2023-09-07T05:28:58;11.70;99.90
48019;DHT22;33786;48.690;9.562;2023-09-07T05:31:24;12.80;99.90
48019;DHT22;33786;48.690;9.562;2023-09-07T05:33:51;14.40;99.90
48019;DHT22;33786;48.690;9.562;2023-09-07T05:36:18;16.40;99.90
48019;DHT22;33786;48.690;9.562;2023-09-07T05:38:45;18.60;99.90
48019;DHT22;33786;48.690;9.562;2023-09-07T05:41:12;20.20;98.20
48019;DHT22;33786;48.690;9.562;2023-09-07T05:43:38;21.50;95.70
48019;DHT22;33786;48.690;9.562;2023-09-07T05:46:05;22.40;93.90
48019;DHT22;33786;48.690;9.562;2023-09-07T05:48:32;23.50;92.00
48019;DHT22;33786;48.690;9.562;2023-09-07T05:50:59;24.00;91.00
48019;DHT22;33786;48.690;9.562;2023-09-07T05:53:26;24.80;90.10
48019;DHT22;33786;48.690;9.562;2023-09-07T05:55:53;25.50;88.20
48019;DHT22;33786;48.690;9.562;2023-09-07T05:58:19;25.90;87.30
48019;DHT22;33786;48.690;9.562;2023-09-07T06:00:46;26.70;84.30
48019;DHT22;33786;48.690;9.562;2023-09-07T06:03:13;26.90;84.00
48019;DHT22;33786;48.690;9.562;2023-09-07T06:05:40;27.40;82.70
48019;DHT22;33786;48.690;9.562;2023-09-07T06:08:07;27.70;81.20
48019;DHT22;33786;48.690;9.562;2023-09-07T06:10:34;28.40;80.00
48019;DHT22;33786;48.690;9.562;2023-09-07T06:13:01;28.20;79.50
48019;DHT22;33786;48.690;9.562;2023-09-07T06:15:30;28.80;78.20
48019;DHT22;33786;48.690;9.562;2023-09-07T06:17:57;29.50;77.30
48019;DHT22;33786;48.690;9.562;2023-09-07T06:20:24;29.70;77.00
48019;DHT22;33786;48.690;9.562;2023-09-07T06:22:51;29.50;76.20
48019;DHT22;33786;48.690;9.562;2023-09-07T06:25:18;30.20;74.60
48019;DHT22;33786;48.690;9.562;2023-09-07T06:27:45;30.20;74.40
48019;DHT22;33786;48.690;9.562;2023-09-07T06:30:12;30.50;73.60
48019;DHT22;33786;48.690;9.562;2023-09-07T06:32:38;31.20;72.70
48019;DHT22;33786;48.690;9.562;2023-09-07T06:35:07;31.70;72.60
48019;DHT22;33786;48.690;9.562;2023-09-07T06:37:34;32.20;71.40
48019;DHT22;33786;48.690;9.562;2023-09-07T06:40:02;32.90;70.00
48019;DHT22;33786;48.690;9.562;2023-09-07T06:42:30;32.80;70.80
48019;DHT22;33786;48.690;9.562;2023-09-07T06:44:57;33.30;69.90
48019;DHT22;33786;48.690;9.562;2023-09-07T06:47:24;34.10;68.30
48019;DHT22;33786;48.690;9.562;2023-09-07T06:49:51;34.90;66.80
48019;DHT22;33786;48.690;9.562;2023-09-07T06:52:17;34.90;67.90
48019;DHT22;33786;48.690;9.562;2023-09-07T06:54:44;35.00;68.60
48019;DHT22;33786;48.690;9.562;2023-09-07T06:57:11;35.60;67.00
48019;DHT22;33786;48.690;9.562;2023-09-07T06:59:38;35.40;66.50
48019;DHT22;33786;48.690;9.562;2023-09-07T07:02:05;36.00;65.70
48019;DHT22;33786;48.690;9.562;2023-09-07T07:04:32;36.20;64.30
48019;DHT22;33786;48.690;9.562;2023-09-07T07:06:59;36.10;64.30
48019;DHT22;33786;48.690;9.562;2023-09-07T07:09:27;36.00;65.90
48019;DHT22;33786;48.690;9.562;2023-09-07T07:11:56;36.30;65.20
48019;DHT22;33786;48.690;9.562;2023-09-07T07:14:23;36.30;66.00
48019;DHT22;33786;48.690;9.562;2023-09-07T07:16:50;36.70;65.00
48019;DHT22;33786;48.690;9.562;2023-09-07T07:19:17;37.00;63.80
48019;DHT22;33786;48.690;9.562;2023-09-07T07:21:43;37.80;63.90
48019;DHT22;33786;48.690;9.562;2023-09-07T07:24:10;37.80;63.60
48019;DHT22;33786;48.690;9.562;2023-09-07T07:26:37;38.40;61.90
48019;DHT22;33786;48.690;9.562;2023-09-07T07:29:04;38.60;62.00
48019;DHT22;33786;48.690;9.562;2023-09-07T07:31:30;37.80;62.20
48019;DHT22;33786;48.690;9.562;2023-09-07T07:33:57;37.50;61.80
48019;DHT22;33786;48.690;9.562;2023-09-07T07:36:25;37.30;62.30
48019;DHT22;33786;48.690;9.562;2023-09-07T07:38:51;37.10;61.80
48019;DHT22;33786;48.690;9.562;2023-09-07T07:41:18;36.00;63.40
48019;DHT22;33786;48.690;9.562;2023-09-07T07:43:45;36.00;63.80
48019;DHT22;33786;48.690;9.562;2023-09-07T07:46:12;36.30;63.60
48019;DHT22;33786;48.690;9.562;2023-09-07T07:48:42;36.70;62.90
48019;DHT22;33786;48.690;9.562;2023-09-07T07:51:09;37.40;62.30
48019;DHT22;33786;48.690;9.562;2023-09-07T07:53:38;36.80;61.20
48019;DHT22;33786;48.690;9.562;2023-09-07T07:56:05;34.60;64.30
48019;DHT22;33786;48.690;9.562;2023-09-07T07:58:32;34.40;64.80
48019;DHT22;33786;48.690;9.562;2023-09-07T08:00:58;34.20;65.60
48019;DHT22;33786;48.690;9.562;2023-09-07T08:03:25;34.90;65.00
48019;DHT22;33786;48.690;9.562;2023-09-07T08:05:52;35.70;63.40
48019;DHT22;33786;48.690;9.562;2023-09-07T08:08:19;35.90;63.10
48019;DHT22;33786;48.690;9.562;2023-09-07T08:10:46;36.40;62.60
48019;DHT22;33786;48.690;9.562;2023-09-07T08:13:13;36.20;63.80
48019;DHT22;33786;48.690;9.562;2023-09-07T08:15:40;36.30;63.20
48019;DHT22;33786;48.690;9.562;2023-09-07T08:18:07;36.00;63.20
48019;DHT22;33786;48.690;9.562;2023-09-07T08:20:36;36.30;62.80
48019;DHT22;33786;48.690;9.562;2023-09-07T08:23:03;34.90;64.50
48019;DHT22;33786;48.690;9.562;2023-09-07T08:25:34;34.70;65.90
48019;DHT22;33786;48.690;9.562;2023-09-07T08:28:01;34.70;64.80
48019;DHT22;33786;48.690;9.562;2023-09-07T08:30:32;35.80;64.00
48019;DHT22;33786;48.690;9.562;2023-09-07T08:33:00;35.20;63.50
48019;DHT22;33786;48.690;9.562;2023-09-07T08:35:29;33.70;65.70
48019;DHT22;33786;48.690;9.562;2023-09-07T08:37:57;33.20;67.20
48019;DHT22;33786;48.690;9.562;2023-09-07T08:40:26;34.30;65.80
48019;DHT22;33786;48.690;9.562;2023-09-07T08:42:54;34.60;65.30
48019;DHT22;33786;48.690;9.562;2023-09-07T08:45:23;34.60;66.10
48019;DHT22;33786;48.690;9.562;2023-09-07T08:47:52;34.60;64.80
48019;DHT22;33786;48.690;9.562;2023-09-07T08:50:19;34.20;66.10
48019;DHT22;33786;48.690;9.562;2023-09-07T08:52:46;35.10;64.60
48019;DHT22;33786;48.690;9.562;2023-09-07T08:55:14;35.90;63.10
48019;DHT22;33786;48.690;9.562;2023-09-07T08:57:41;37.20;62.40
48019;DHT22;33786;48.690;9.562;2023-09-07T09:00:08;35.70;63.50
48019;DHT22;33786;48.690;9.562;2023-09-07T09:02:40;33.20;66.90
48019;DHT22;33786;48.690;9.562;2023-09-07T09:05:08;32.80;67.80
48019;DHT22;33786;48.690;9.562;2023-09-07T09:07:36;32.90;67.50
48019;DHT22;33786;48.690;9.562;2023-09-07T09:10:04;33.60;67.50
48019;DHT22;33786;48.690;9.562;2023-09-07T09:12:31;33.20;67.40
48019;DHT22;33786;48.690;9.562;2023-09-07T09:15:01;32.60;68.30
48019;DHT22;33786;48.690;9.562;2023-09-07T09:17:29;32.40;68.40
48019;DHT22;33786;48.690;9.562;2023-09-07T09:19:56;31.90;69.80
48019;DHT22;33786;48.690;9.562;2023-09-07T09:22:23;32.00;70.00
48019;DHT22;33786;48.690;9.562;2023-09-07T09:24:51;34.00;67.80
48019;DHT22;33786;48.690;9.562;2023-09-07T09:27:17;33.50;66.80
48019;DHT22;33786;48.690;9.562;2023-09-07T09:29:44;32.70;68.30
48019;DHT22;33786;48.690;9.562;2023-09-07T09:32:13;33.10;67.50
48019;DHT22;33786;48.690;9.562;2023-09-07T09:34:40;32.40;68.30
48019;DHT22;33786;48.690;9.562;2023-09-07T09:37:12;33.30;68.10
48019;DHT22;33786;48.690;9.562;2023-09-07T09:39:40;34.00;66.90
48019;DHT22;33786;48.690;9.562;2023-09-07T09:42:07;34.10;67.20
48019;DHT22;33786;48.690;9.562;2023-09-07T09:44:34;35.10;66.30
48019;DHT22;33786;48.690;9.562;2023-09-07T09:47:03;34.20;65.90
48019;DHT22;33786;48.690;9.562;2023-09-07T09:49:30;33.40;67.60
48019;DHT22;33786;48.690;9.562;2023-09-07T09:51:57;33.60;67.50
48019;DHT22;33786;48.690;9.562;2023-09-07T09:54:25;34.20;66.60
48019;DHT22;33786;48.690;9.562;2023-09-07T09:56:52;34.30;66.40
48019;DHT22;33786;48.690;9.562;2023-09-07T09:59:20;34.10;67.60
48019;DHT22;33786;48.690;9.562;2023-09-07T10:01:49;33.90;67.10
48019;DHT22;33786;48.690;9.562;2023-09-07T10:04:17;33.30;67.90
48019;DHT22;33786;48.690;9.562;2023-09-07T10:06:53;33.30;68.90
48019;DHT22;33786;48.690;9.562;2023-09-07T10:09:20;33.10;68.80
48019;DHT22;33786;48.690;9.562;2023-09-07T10:11:53;33.30;68.10
48019;DHT22;33786;48.690;9.562;2023-09-07T10:14:20;34.20;66.90
48019;DHT22;33786;48.690;9.562;2023-09-07T10:16:48;34.40;68.70
48019;DHT22;33786;48.690;9.562;2023-09-07T10:21:42;34.40;67.90
48019;DHT22;33786;48.690;9.562;2023-09-07T10:24:10;34.10;68.60
48019;DHT22;33786;48.690;9.562;2023-09-07T10:26:37;33.60;68.10
48019;DHT22;33786;48.690;9.562;2023-09-07T10:29:03;33.70;69.10
48019;DHT22;33786;48.690;9.562;2023-09-07T10:31:32;33.40;68.30
48019;DHT22;33786;48.690;9.562;2023-09-07T10:34:19;32.80;69.40
48019;DHT22;33786;48.690;9.562;2023-09-07T10:36:46;32.20;70.20
48019;DHT22;33786;48.690;9.562;2023-09-07T10:39:12;31.70;71.10
48019;DHT22;33786;48.690;9.562;2023-09-07T10:41:43;31.30;71.30
48019;DHT22;33786;48.690;9.562;2023-09-07T10:44:10;31.40;72.00
48019;DHT22;33786;48.690;9.562;2023-09-07T10:46:38;31.10;71.40
48019;DHT22;33786;48.690;9.562;2023-09-07T10:49:11;30.50;72.80
48019;DHT22;33786;48.690;9.562;2023-09-07T10:51:44;30.00;74.00
48019;DHT22;33786;48.690;9.562;2023-09-07T10:54:18;29.80;75.30
48019;DHT22;33786;48.690;9.562;2023-09-07T10:56:45;29.90;74.80
48019;DHT22;33786;48.690;9.562;2023-09-07T10:59:13;29.60;74.30
48019;DHT22;33786;48.690;9.562;2023-09-07T11:01:40;29.80;75.30
48019;DHT22;33786;48.690;9.562;2023-09-07T11:04:07;29.90;75.90
48019;DHT22;33786;48.690;9.562;2023-09-07T11:06:35;29.70;75.40
48019;DHT22;33786;48.690;9.562;2023-09-07T11:09:02;29.40;75.00
48019;DHT22;33786;48.690;9.562;2023-09-07T11:11:31;29.60;75.20
48019;DHT22;33786;48.690;9.562;2023-09-07T11:13:59;29.50;75.30
48019;DHT22;33786;48.690;9.562;2023-09-07T11:16:28;29.80;75.00
48019;DHT22;33786;48.690;9.562;2023-09-07T11:18:55;29.50;75.10
48019;DHT22;33786;48.690;9.562;2023-09-07T11:21:22;29.10;76.70
48019;DHT22;33786;48.690;9.562;2023-09-07T11:23:50;29.10;76.40
48019;DHT22;33786;48.690;9.562;2023-09-07T11:26:17;29.20;75.60
48019;DHT22;33786;48.690;9.562;2023-09-07T11:28:47;29.50;75.00
48019;DHT22;33786;48.690;9.562;2023-09-07T11:31:17;29.60;75.20
48019;DHT22;33786;48.690;9.562;2023-09-07T11:33:44;29.60;76.60
48019;DHT22;33786;48.690;9.562;2023-09-07T11:36:13;29.50;74.30
48019;DHT22;33786;48.690;9.562;2023-09-07T11:38:42;29.50;75.10
48019;DHT22;33786;48.690;9.562;2023-09-07T11:41:09;29.60;74.60
48019;DHT22;33786;48.690;9.562;2023-09-07T11:43:36;29.40;75.70
48019;DHT22;33786;48.690;9.562;2023-09-07T11:46:04;29.50;74.00
48019;DHT22;33786;48.690;9.562;2023-09-07T11:48:31;29.40;73.80
48019;DHT22;33786;48.690;9.562;2023-09-07T11:51:00;29.40;73.70
48019;DHT22;33786;48.690;9.562;2023-09-07T11:53:27;29.20;73.50
48019;DHT22;33786;48.690;9.562;2023-09-07T11:55:54;29.00;74.80
48019;DHT22;33786;48.690;9.562;2023-09-07T11:58:21;29.00;75.60
48019;DHT22;33786;48.690;9.562;2023-09-07T12:00:47;29.20;74.60
48019;DHT22;33786;48.690;9.562;2023-09-07T12:03:15;29.50;76.90
48019;DHT22;33786;48.690;9.562;2023-09-07T12:05:42;29.60;73.30
48019;DHT22;33786;48.690;9.562;2023-09-07T12:08:11;29.70;75.40
48019;DHT22;33786;48.690;9.562;2023-09-07T12:10:37;29.70;75.70
48019;DHT22;33786;48.690;9.562;2023-09-07T12:13:04;29.80;76.00
48019;DHT22;33786;48.690;9.562;2023-09-07T12:15:31;29.80;74.80
48019;DHT22;33786;48.690;9.562;2023-09-07T12:17:58;29.90;75.00
48019;DHT22;33786;48.690;9.562;2023-09-07T12:20:25;29.60;74.70
48019;DHT22;33786;48.690;9.562;2023-09-07T12:22:52;29.80;76.00
48019;DHT22;33786;48.690;9.562;2023-09-07T12:25:19;29.90;76.80
48019;DHT22;33786;48.690;9.562;2023-09-07T12:27:46;30.00;75.00
48019;DHT22;33786;48.690;9.562;2023-09-07T12:30:20;30.00;77.30
48019;DHT22;33786;48.690;9.562;2023-09-07T12:32:49;30.10;75.30
48019;DHT22;33786;48.690;9.562;2023-09-07T12:35:17;30.30;75.70
48019;DHT22;33786;48.690;9.562;2023-09-07T12:37:44;30.40;74.40
48019;DHT22;33786;48.690;9.562;2023-09-07T12:40:11;30.60;74.90
48019;DHT22;33786;48.690;9.562;2023-09-07T12:42:39;30.70;73.80
48019;DHT22;33786;48.690;9.562;2023-09-07T12:45:10;30.70;74.00
48019;DHT22;33786;48.690;9.562;2023-09-07T12:47:38;30.70;73.40
48019;DHT22;33786;48.690;9.562;2023-09-07T12:50:06;30.50;73.40
48019;DHT22;33786;48.690;9.562;2023-09-07T12:52:33;30.30;75.40
48019;DHT22;33786;48.690;9.562;2023-09-07T12:55:06;30.20;75.60
48019;DHT22;33786;48.690;9.562;2023-09-07T12:57:33;29.90;74.50
48019;DHT22;33786;48.690;9.562;2023-09-07T13:00:00;30.00;75.50
48019;DHT22;33786;48.690;9.562;2023-09-07T13:02:27;30.20;76.10
48019;DHT22;33786;48.690;9.562;2023-09-07T13:04:54;30.30;73.50
48019;DHT22;33786;48.690;9.562;2023-09-07T13:07:22;30.20;73.50
48019;DHT22;33786;48.690;9.562;2023-09-07T13:09:49;30.10;72.70
48019;DHT22;33786;48.690;9.562;2023-09-07T13:12:16;30.30;73.10
48019;DHT22;33786;48.690;9.562;2023-09-07T13:14:43;30.00;72.50
48019;DHT22;33786;48.690;9.562;2023-09-07T13:17:12;29.90;72.50
48019;DHT22;33786;48.690;9.562;2023-09-07T13:19:38;29.90;73.30
48019;DHT22;33786;48.690;9.562;2023-09-07T13:22:05;29.80;72.40
48019;DHT22;33786;48.690;9.562;2023-09-07T13:24:33;29.70;73.00
48019;DHT22;33786;48.690;9.562;2023-09-07T13:27:01;29.70;72.20
48019;DHT22;33786;48.690;9.562;2023-09-07T13:29:30;29.70;73.60
48019;DHT22;33786;48.690;9.562;2023-09-07T13:31:58;29.80;73.60
48019;DHT22;33786;48.690;9.562;2023-09-07T13:34:25;29.90;73.60
48019;DHT22;33786;48.690;9.562;2023-09-07T13:36:52;30.00;72.60
48019;DHT22;33786;48.690;9.562;2023-09-07T13:39:20;29.80;72.30
48019;DHT22;33786;48.690;9.562;2023-09-07T13:41:47;29.80;72.80
48019;DHT22;33786;48.690;9.562;2023-09-07T13:44:14;29.80;73.10
48019;DHT22;33786;48.690;9.562;2023-09-07T13:46:41;29.80;71.30
48019;DHT22;33786;48.690;9.562;2023-09-07T13:49:08;29.60;72.60
48019;DHT22;33786;48.690;9.562;2023-09-07T13:51:34;29.80;72.90
48019;DHT22;33786;48.690;9.562;2023-09-07T13:54:05;29.90;73.60
48019;DHT22;33786;48.690;9.562;2023-09-07T13:56:32;29.90;72.70
48019;DHT22;33786;48.690;9.562;2023-09-07T13:58:59;29.80;72.90
48019;DHT22;33786;48.690;9.562;2023-09-07T14:01:26;29.60;69.60
48019;DHT22;33786;48.690;9.562;2023-09-07T14:03:53;29.60;70.30
48019;DHT22;33786;48.690;9.562;2023-09-07T14:06:20;29.50;72.60
48019;DHT22;33786;48.690;9.562;2023-09-07T14:08:49;29.60;72.70
48019;DHT22;33786;48.690;9.562;2023-09-07T14:11:17;29.50;73.40
48019;DHT22;33786;48.690;9.562;2023-09-07T14:13:44;29.60;71.40
48019;DHT22;33786;48.690;9.562;2023-09-07T14:16:11;29.80;72.10
48019;DHT22;33786;48.690;9.562;2023-09-07T14:18:38;29.70;72.60
48019;DHT22;33786;48.690;9.562;2023-09-07T14:21:04;29.60;72.80
48019;DHT22;33786;48.690;9.562;2023-09-07T14:23:31;29.70;73.80
48019;DHT22;33786;48.690;9.562;2023-09-07T14:25:58;29.40;70.60
48019;DHT22;33786;48.690;9.562;2023-09-07T14:28:27;29.40;72.60
48019;DHT22;33786;48.690;9.562;2023-09-07T14:30:54;29.40;72.70
48019;DHT22;33786;48.690;9.562;2023-09-07T14:33:21;29.40;72.50
48019;DHT22;33786;48.690;9.562;2023-09-07T14:35:48;29.60;73.20
48019;DHT22;33786;48.690;9.562;2023-09-07T14:38:20;29.60;72.00
48019;DHT22;33786;48.690;9.562;2023-09-07T14:40:47;29.40;72.60
48019;DHT22;33786;48.690;9.562;2023-09-07T14:43:16;29.40;73.50
48019;DHT22;33786;48.690;9.562;2023-09-07T14:45:46;29.20;72.70
48019;DHT22;33786;48.690;9.562;2023-09-07T14:48:12;29.20;72.50
48019;DHT22;33786;48.690;9.562;2023-09-07T14:50:39;28.90;72.80
48019;DHT22;33786;48.690;9.562;2023-09-07T14:53:06;29.00;73.70
48019;DHT22;33786;48.690;9.562;2023-09-07T14:55:33;29.00;74.60
48019;DHT22;33786;48.690;9.562;2023-09-07T14:57:59;29.00;74.30
48019;DHT22;33786;48.690;9.562;2023-09-07T15:00:27;29.10;75.80
48019;DHT22;33786;48.690;9.562;2023-09-07T15:02:58;29.00;76.30
48019;DHT22;33786;48.690;9.562;2023-09-07T15:05:25;29.20;76.10
48019;DHT22;33786;48.690;9.562;2023-09-07T15:07:52;29.20;75.70
48019;DHT22;33786;48.690;9.562;2023-09-07T15:10:19;29.30;75.10
48019;DHT22;33786;48.690;9.562;2023-09-07T15:12:46;29.10;73.30
48019;DHT22;33786;48.690;9.562;2023-09-07T15:15:13;29.10;76.90
48019;DHT22;33786;48.690;9.562;2023-09-07T15:17:43;29.10;77.10
48019;DHT22;33786;48.690;9.562;2023-09-07T15:20:10;28.90;76.50
48019;DHT22;33786;48.690;9.562;2023-09-07T15:22:37;28.80;75.90
48019;DHT22;33786;48.690;9.562;2023-09-07T15:25:04;28.90;75.30
48019;DHT22;33786;48.690;9.562;2023-09-07T15:27:31;28.70;76.60
48019;DHT22;33786;48.690;9.562;2023-09-07T15:29:58;28.70;77.20
48019;DHT22;33786;48.690;9.562;2023-09-07T15:32:25;28.70;77.30
48019;DHT22;33786;48.690;9.562;2023-09-07T15:34:52;28.70;77.00
48019;DHT22;33786;48.690;9.562;2023-09-07T15:37:18;28.70;76.30